sensor_id;sensor_type;location;lat;lon;timestamp;pressure;altitude;pressure_sealevel;temperature;humidity
84752;BME280;74978;37.772;-122.432;2024-01-25T00:01:27;101270.63;;;9.91;72.21
84752;BME280;74978;37.772;-122.432;2024-01-25T00:03:53;101272.62;;;10.65;71.43
84752;BME280;74978;37.772;-122.432;2024-01-25T00:06:18;101271.19;;;10.35;69.99
84752;BME280;74978;37.772;-122.432;2024-01-25T00:08:44;101271.79;;;9.94;71.15
84752;BME280;74978;37.772;-122.432;2024-01-25T00:11:09;101266.45;;;10.09;71.61
84752;BME280;74978;37.772;-122.432;2024-01-25T00:13:34;101264.43;;;10.32;70.94
84752;BME280;74978;37.772;-122.432;2024-01-25T00:16:00;101266.88;;;10.05;68.91
84752;BME280;74978;37.772;-122.432;2024-01-25T00:18:25;101266.58;;;10.70;68.93
84752;BME280;74978;37.772;-122.432;2024-01-25T00:20:50;101269.39;;;10.65;69.20
84752;BME280;74978;37.772;-122.432;2024-01-25T00:23:16;101270.80;;;10.08;70.11
84752;BME280;74978;37.772;-122.432;2024-01-25T00:25:41;101276.72;;;9.78;70.86
84752;BME280;74978;37.772;-122.432;2024-01-25T00:28:07;101273.20;;;10.39;70.36
84752;BME280;74978;37.772;-122.432;2024-01-25T00:30:32;101268.56;;;10.14;71.02
84752;BME280;74978;37.772;-122.432;2024-01-25T00:32:58;101265.74;;;9.52;70.53
84752;BME280;74978;37.772;-122.432;2024-01-25T00:35:24;101268.69;;;10.75;68.64
84752;BME280;74978;37.772;-122.432;2024-01-25T00:37:50;101266.13;;;11.38;66.81
84752;BME280;74978;37.772;-122.432;2024-01-25T00:40:15;101268.24;;;10.08;69.41
84752;BME280;74978;37.772;-122.432;2024-01-25T00:42:44;101275.15;;;9.72;70.73
84752;BME280;74978;37.772;-122.432;2024-01-25T00:45:07;101274.40;;;9.83;72.71
84752;BME280;74978;37.772;-122.432;2024-01-25T00:47:32;101270.13;;;9.84;70.95
84752;BME280;74978;37.772;-122.432;2024-01-25T00:49:57;101272.54;;;9.09;71.38
84752;BME280;74978;37.772;-122.432;2024-01-25T00:52:23;101269.82;;;9.69;70.62
84752;BME280;74978;37.772;-122.432;2024-01-25T00:54:48;101274.51;;;9.80;71.76
84752;BME280;74978;37.772;-122.432;2024-01-25T00:57:14;101268.21;;;9.61;71.16
84752;BME280;74978;37.772;-122.432;2024-01-25T00:59:39;101265.24;;;9.28;72.17
84752;BME280;74978;37.772;-122.432;2024-01-25T01:02:05;101263.04;;;9.15;71.97
84752;BME280;74978;37.772;-122.432;2024-01-25T01:04:31;101262.04;;;9.81;71.16
84752;BME280;74978;37.772;-122.432;2024-01-25T01:06:56;101261.29;;;9.48;71.39
84752;BME280;74978;37.772;-122.432;2024-01-25T01:09:21;101259.07;;;9.32;71.66
84752;BME280;74978;37.772;-122.432;2024-01-25T01:11:47;101266.24;;;9.65;71.49
84752;BME280;74978;37.772;-122.432;2024-01-25T01:14:12;101268.45;;;9.46;70.50
84752;BME280;74978;37.772;-122.432;2024-01-25T01:16:38;101274.34;;;9.22;73.01
84752;BME280;74978;37.772;-122.432;2024-01-25T01:19:03;101281.97;;;8.90;72.18
84752;BME280;74978;37.772;-122.432;2024-01-25T01:21:28;101287.98;;;9.62;71.96
84752;BME280;74978;37.772;-122.432;2024-01-25T01:23:55;101291.40;;;9.41;73.00
84752;BME280;74978;37.772;-122.432;2024-01-25T01:26:19;101296.36;;;9.07;73.45
84752;BME280;74978;37.772;-122.432;2024-01-25T01:28:45;101295.31;;;9.42;72.85
84752;BME280;74978;37.772;-122.432;2024-01-25T01:31:11;101290.59;;;9.89;71.44
84752;BME280;74978;37.772;-122.432;2024-01-25T01:33:36;101295.62;;;9.68;71.63
84752;BME280;74978;37.772;-122.432;2024-01-25T01:36:01;101292.78;;;9.13;71.30
84752;BME280;74978;37.772;-122.432;2024-01-25T01:38:27;101292.95;;;9.49;72.87
84752;BME280;74978;37.772;-122.432;2024-01-25T01:40:53;101298.23;;;9.51;72.79
84752;BME280;74978;37.772;-122.432;2024-01-25T01:43:18;101294.55;;;9.65;71.92
84752;BME280;74978;37.772;-122.432;2024-01-25T01:45:45;101298.70;;;9.13;73.67
84752;BME280;74978;37.772;-122.432;2024-01-25T01:48:09;101298.36;;;9.14;73.63
84752;BME280;74978;37.772;-122.432;2024-01-25T01:50:35;101302.64;;;9.00;74.17
84752;BME280;74978;37.772;-122.432;2024-01-25T01:53:01;101301.36;;;7.97;73.82
84752;BME280;74978;37.772;-122.432;2024-01-25T01:55:26;101308.17;;;9.19;73.13
84752;BME280;74978;37.772;-122.432;2024-01-25T01:57:51;101311.98;;;9.39;73.29
84752;BME280;74978;37.772;-122.432;2024-01-25T02:00:17;101316.36;;;9.35;72.47
84752;BME280;74978;37.772;-122.432;2024-01-25T02:02:43;101314.02;;;9.50;72.06
84752;BME280;74978;37.772;-122.432;2024-01-25T02:05:08;101310.23;;;9.39;73.35
84752;BME280;74978;37.772;-122.432;2024-01-25T02:07:34;101313.00;;;9.33;74.07
84752;BME280;74978;37.772;-122.432;2024-01-25T02:09:59;101324.55;;;8.41;74.73
84752;BME280;74978;37.772;-122.432;2024-01-25T02:12:25;101329.30;;;8.83;76.10
84752;BME280;74978;37.772;-122.432;2024-01-25T02:14:50;101334.20;;;8.79;75.87
84752;BME280;74978;37.772;-122.432;2024-01-25T02:17:16;101334.36;;;8.64;76.83
84752;BME280;74978;37.772;-122.432;2024-01-25T02:19:41;101337.56;;;8.97;76.64
84752;BME280;74978;37.772;-122.432;2024-01-25T02:22:06;101338.86;;;8.47;76.37
84752;BME280;74978;37.772;-122.432;2024-01-25T02:24:32;101339.03;;;8.69;75.24
84752;BME280;74978;37.772;-122.432;2024-01-25T02:26:57;101341.16;;;8.37;76.09
84752;BME280;74978;37.772;-122.432;2024-01-25T02:29:23;101337.75;;;8.65;76.48
84752;BME280;74978;37.772;-122.432;2024-01-25T02:31:49;101341.67;;;8.92;76.13
84752;BME280;74978;37.772;-122.432;2024-01-25T02:34:14;101346.45;;;8.72;75.21
84752;BME280;74978;37.772;-122.432;2024-01-25T02:36:40;101355.98;;;8.69;75.16
84752;BME280;74978;37.772;-122.432;2024-01-25T02:39:05;101359.49;;;8.30;76.52
84752;BME280;74978;37.772;-122.432;2024-01-25T02:41:31;101366.73;;;8.54;76.63
84752;BME280;74978;37.772;-122.432;2024-01-25T02:43:56;101371.75;;;8.40;77.50
84752;BME280;74978;37.772;-122.432;2024-01-25T02:46:23;101373.86;;;8.20;78.59
84752;BME280;74978;37.772;-122.432;2024-01-25T02:48:47;101377.46;;;8.73;77.49
84752;BME280;74978;37.772;-122.432;2024-01-25T02:51:13;101376.02;;;8.79;77.39
84752;BME280;74978;37.772;-122.432;2024-01-25T02:53:39;101375.90;;;8.32;77.85
84752;BME280;74978;37.772;-122.432;2024-01-25T02:56:05;101378.14;;;8.09;78.61
84752;BME280;74978;37.772;-122.432;2024-01-25T02:58:30;101369.41;;;8.17;79.37
84752;BME280;74978;37.772;-122.432;2024-01-25T03:00:55;101366.87;;;8.41;78.39
84752;BME280;74978;37.772;-122.432;2024-01-25T03:03:21;101359.58;;;8.31;77.58
84752;BME280;74978;37.772;-122.432;2024-01-25T03:05:46;101357.48;;;8.36;79.10
84752;BME280;74978;37.772;-122.432;2024-01-25T03:08:12;101373.02;;;8.25;79.65
84752;BME280;74978;37.772;-122.432;2024-01-25T03:10:38;101374.26;;;8.43;79.30
84752;BME280;74978;37.772;-122.432;2024-01-25T03:13:03;101373.73;;;7.67;79.05
84752;BME280;74978;37.772;-122.432;2024-01-25T03:15:28;101384.31;;;8.05;79.64
84752;BME280;74978;37.772;-122.432;2024-01-25T03:17:54;101389.11;;;8.53;78.97
84752;BME280;74978;37.772;-122.432;2024-01-25T03:20:19;101396.77;;;8.65;77.60
84752;BME280;74978;37.772;-122.432;2024-01-25T03:22:44;101401.36;;;8.43;77.09
84752;BME280;74978;37.772;-122.432;2024-01-25T03:25:11;101403.66;;;8.07;77.95
84752;BME280;74978;37.772;-122.432;2024-01-25T03:27:35;101405.27;;;8.22;78.83
84752;BME280;74978;37.772;-122.432;2024-01-25T03:30:01;101411.14;;;7.64;80.45
84752;BME280;74978;37.772;-122.432;2024-01-25T03:32:27;101418.77;;;8.49;78.30
84752;BME280;74978;37.772;-122.432;2024-01-25T03:34:53;101421.25;;;8.36;78.06
84752;BME280;74978;37.772;-122.432;2024-01-25T03:37:18;101425.07;;;8.51;77.10
84752;BME280;74978;37.772;-122.432;2024-01-25T03:39:43;101424.41;;;8.79;76.38
84752;BME280;74978;37.772;-122.432;2024-01-25T03:42:09;101431.10;;;8.29;77.44
84752;BME280;74978;37.772;-122.432;2024-01-25T03:44:34;101436.72;;;8.08;77.58
84752;BME280;74978;37.772;-122.432;2024-01-25T03:47:00;101445.43;;;7.80;75.96
84752;BME280;74978;37.772;-122.432;2024-01-25T03:49:25;101452.28;;;7.70;77.51
84752;BME280;74978;37.772;-122.432;2024-01-25T03:51:52;101447.19;;;7.93;77.98
84752;BME280;74978;37.772;-122.432;2024-01-25T03:54:17;101442.90;;;7.85;77.37
84752;BME280;74978;37.772;-122.432;2024-01-25T03:56:42;101453.34;;;8.00;77.38
84752;BME280;74978;37.772;-122.432;2024-01-25T03:59:08;101448.98;;;8.17;77.02
84752;BME280;74978;37.772;-122.432;2024-01-25T04:01:33;101445.49;;;7.59;78.19
84752;BME280;74978;37.772;-122.432;2024-01-25T04:03:59;101455.61;;;6.68;80.72
84752;BME280;74978;37.772;-122.432;2024-01-25T04:06:24;101461.86;;;7.18;80.59
84752;BME280;74978;37.772;-122.432;2024-01-25T04:08:50;101464.27;;;7.47;80.45
84752;BME280;74978;37.772;-122.432;2024-01-25T04:11:16;101459.62;;;7.74;77.66
84752;BME280;74978;37.772;-122.432;2024-01-25T04:13:41;101460.30;;;7.28;79.77
84752;BME280;74978;37.772;-122.432;2024-01-25T04:16:07;101461.49;;;6.96;79.60
84752;BME280;74978;37.772;-122.432;2024-01-25T04:18:33;101469.38;;;7.35;80.05
84752;BME280;74978;37.772;-122.432;2024-01-25T04:20:57;101467.73;;;7.23;77.98
84752;BME280;74978;37.772;-122.432;2024-01-25T04:23:22;101464.65;;;7.57;77.39
84752;BME280;74978;37.772;-122.432;2024-01-25T04:25:48;101464.05;;;7.63;77.40
84752;BME280;74978;37.772;-122.432;2024-01-25T04:28:13;101455.08;;;7.58;77.14
84752;BME280;74978;37.772;-122.432;2024-01-25T04:30:39;101453.30;;;7.26;77.44
84752;BME280;74978;37.772;-122.432;2024-01-25T04:33:06;101454.84;;;7.30;75.52
84752;BME280;74978;37.772;-122.432;2024-01-25T04:35:30;101459.73;;;7.77;77.65
84752;BME280;74978;37.772;-122.432;2024-01-25T04:37:55;101461.83;;;7.58;77.11
84752;BME280;74978;37.772;-122.432;2024-01-25T04:40:21;101476.50;;;7.40;76.77
84752;BME280;74978;37.772;-122.432;2024-01-25T04:42:47;101491.54;;;7.43;78.60
84752;BME280;74978;37.772;-122.432;2024-01-25T04:45:12;101484.67;;;7.30;77.68
84752;BME280;74978;37.772;-122.432;2024-01-25T04:47:38;101479.79;;;7.38;77.28
84752;BME280;74978;37.772;-122.432;2024-01-25T04:50:06;101478.24;;;7.69;75.29
84752;BME280;74978;37.772;-122.432;2024-01-25T04:52:29;101484.99;;;7.77;75.62
84752;BME280;74978;37.772;-122.432;2024-01-25T04:54:55;101479.28;;;8.52;74.04
84752;BME280;74978;37.772;-122.432;2024-01-25T04:57:20;101476.81;;;9.34;71.34
84752;BME280;74978;37.772;-122.432;2024-01-25T04:59:45;101476.44;;;8.82;71.81
84752;BME280;74978;37.772;-122.432;2024-01-25T05:02:11;101481.44;;;8.38;71.65
84752;BME280;74978;37.772;-122.432;2024-01-25T05:04:36;101477.12;;;8.38;72.43
84752;BME280;74978;37.772;-122.432;2024-01-25T05:07:01;101474.91;;;7.77;73.14
84752;BME280;74978;37.772;-122.432;2024-01-25T05:09:27;101480.41;;;8.73;71.80
84752;BME280;74978;37.772;-122.432;2024-01-25T05:11:53;101479.43;;;8.55;72.84
84752;BME280;74978;37.772;-122.432;2024-01-25T05:14:18;101477.27;;;8.24;73.20
84752;BME280;74978;37.772;-122.432;2024-01-25T05:16:43;101479.38;;;8.85;72.49
84752;BME280;74978;37.772;-122.432;2024-01-25T05:19:09;101482.79;;;9.02;71.11
84752;BME280;74978;37.772;-122.432;2024-01-25T05:21:37;101486.60;;;8.74;71.98
84752;BME280;74978;37.772;-122.432;2024-01-25T05:24:00;101496.96;;;9.50;68.26
84752;BME280;74978;37.772;-122.432;2024-01-25T05:26:25;101500.62;;;9.98;66.36
84752;BME280;74978;37.772;-122.432;2024-01-25T05:28:51;101499.60;;;10.66;63.08
84752;BME280;74978;37.772;-122.432;2024-01-25T05:31:16;101503.46;;;10.19;64.97
84752;BME280;74978;37.772;-122.432;2024-01-25T05:33:42;101500.26;;;11.22;63.61
84752;BME280;74978;37.772;-122.432;2024-01-25T05:36:07;101508.23;;;9.65;66.20
84752;BME280;74978;37.772;-122.432;2024-01-25T05:38:32;101511.10;;;9.76;67.38
84752;BME280;74978;37.772;-122.432;2024-01-25T05:40:57;101506.88;;;9.06;66.98
84752;BME280;74978;37.772;-122.432;2024-01-25T05:43:23;101507.85;;;10.33;65.42
84752;BME280;74978;37.772;-122.432;2024-01-25T05:45:54;101506.61;;;8.65;69.04
84752;BME280;74978;37.772;-122.432;2024-01-25T05:48:15;101502.06;;;8.62;70.82
84752;BME280;74978;37.772;-122.432;2024-01-25T05:50:39;101505.37;;;10.48;64.58
84752;BME280;74978;37.772;-122.432;2024-01-25T05:53:06;101505.14;;;11.63;61.58
84752;BME280;74978;37.772;-122.432;2024-01-25T05:55:30;101515.14;;;9.59;67.38
84752;BME280;74978;37.772;-122.432;2024-01-25T05:57:56;101511.58;;;8.77;68.30
84752;BME280;74978;37.772;-122.432;2024-01-25T06:00:21;101511.35;;;8.50;71.53
84752;BME280;74978;37.772;-122.432;2024-01-25T06:02:46;101510.22;;;8.31;72.07
84752;BME280;74978;37.772;-122.432;2024-01-25T06:05:13;101514.53;;;8.27;72.12
84752;BME280;74978;37.772;-122.432;2024-01-25T06:07:39;101515.30;;;8.52;70.66
84752;BME280;74978;37.772;-122.432;2024-01-25T06:10:05;101514.32;;;8.61;69.87
84752;BME280;74978;37.772;-122.432;2024-01-25T06:12:28;101515.48;;;8.09;72.48
84752;BME280;74978;37.772;-122.432;2024-01-25T06:14:54;101528.45;;;7.91;73.42
84752;BME280;74978;37.772;-122.432;2024-01-25T06:17:19;101533.20;;;8.57;72.02
84752;BME280;74978;37.772;-122.432;2024-01-25T06:19:44;101538.91;;;7.95;73.61
84752;BME280;74978;37.772;-122.432;2024-01-25T06:22:10;101542.90;;;8.33;73.40
84752;BME280;74978;37.772;-122.432;2024-01-25T06:24:35;101543.65;;;8.61;72.89
84752;BME280;74978;37.772;-122.432;2024-01-25T06:27:01;101548.99;;;8.35;72.85
84752;BME280;74978;37.772;-122.432;2024-01-25T06:29:26;101547.88;;;7.72;75.43
84752;BME280;74978;37.772;-122.432;2024-01-25T06:31:52;101547.37;;;8.16;74.64
84752;BME280;74978;37.772;-122.432;2024-01-25T06:34:18;101554.88;;;8.66;73.03
84752;BME280;74978;37.772;-122.432;2024-01-25T06:36:43;101564.18;;;9.00;70.46
84752;BME280;74978;37.772;-122.432;2024-01-25T06:39:08;101566.32;;;8.59;69.94
84752;BME280;74978;37.772;-122.432;2024-01-25T06:41:33;101566.51;;;8.75;70.42
84752;BME280;74978;37.772;-122.432;2024-01-25T06:43:59;101570.16;;;7.52;72.59
84752;BME280;74978;37.772;-122.432;2024-01-25T06:46:25;101570.95;;;8.47;72.73
84752;BME280;74978;37.772;-122.432;2024-01-25T06:48:52;101577.94;;;8.26;74.04
84752;BME280;74978;37.772;-122.432;2024-01-25T06:51:16;101583.37;;;8.04;74.49
84752;BME280;74978;37.772;-122.432;2024-01-25T06:53:41;101577.71;;;8.43;74.15
84752;BME280;74978;37.772;-122.432;2024-01-25T06:56:07;101579.23;;;7.65;74.34
84752;BME280;74978;37.772;-122.432;2024-01-25T06:58:33;101579.81;;;8.12;74.71
84752;BME280;74978;37.772;-122.432;2024-01-25T07:00:58;101575.96;;;7.78;72.41
84752;BME280;74978;37.772;-122.432;2024-01-25T07:03:23;101570.12;;;8.54;72.94
84752;BME280;74978;37.772;-122.432;2024-01-25T07:05:49;101567.34;;;8.35;74.18
84752;BME280;74978;37.772;-122.432;2024-01-25T07:08:14;101562.87;;;8.64;72.56
84752;BME280;74978;37.772;-122.432;2024-01-25T07:10:40;101558.31;;;8.85;70.96
84752;BME280;74978;37.772;-122.432;2024-01-25T07:13:06;101556.68;;;8.48;70.99
84752;BME280;74978;37.772;-122.432;2024-01-25T07:15:30;101561.33;;;7.82;75.30
84752;BME280;74978;37.772;-122.432;2024-01-25T07:17:55;101561.30;;;8.33;74.28
84752;BME280;74978;37.772;-122.432;2024-01-25T07:20:21;101555.74;;;9.41;71.12
84752;BME280;74978;37.772;-122.432;2024-01-25T07:22:47;101552.62;;;8.93;70.99
84752;BME280;74978;37.772;-122.432;2024-01-25T07:25:13;101559.65;;;8.27;72.73
84752;BME280;74978;37.772;-122.432;2024-01-25T07:27:38;101553.78;;;8.16;74.04
84752;BME280;74978;37.772;-122.432;2024-01-25T07:30:05;101552.18;;;7.04;77.19
84752;BME280;74978;37.772;-122.432;2024-01-25T07:32:30;101554.33;;;7.82;75.43
84752;BME280;74978;37.772;-122.432;2024-01-25T07:34:55;101548.26;;;7.29;76.78
84752;BME280;74978;37.772;-122.432;2024-01-25T07:37:22;101555.37;;;7.94;75.08
84752;BME280;74978;37.772;-122.432;2024-01-25T07:39:47;101556.43;;;8.45;72.60
84752;BME280;74978;37.772;-122.432;2024-01-25T07:42:12;101555.86;;;8.13;73.46
84752;BME280;74978;37.772;-122.432;2024-01-25T07:44:37;101554.77;;;7.96;74.29
84752;BME280;74978;37.772;-122.432;2024-01-25T07:47:04;101551.16;;;7.62;75.01
84752;BME280;74978;37.772;-122.432;2024-01-25T07:49:29;101553.11;;;7.93;74.90
84752;BME280;74978;37.772;-122.432;2024-01-25T07:51:54;101544.43;;;8.15;74.11
84752;BME280;74978;37.772;-122.432;2024-01-25T07:54:19;101544.69;;;7.48;75.93
84752;BME280;74978;37.772;-122.432;2024-01-25T07:56:45;101546.64;;;7.49;77.06
84752;BME280;74978;37.772;-122.432;2024-01-25T07:59:10;101547.49;;;7.55;75.81
84752;BME280;74978;37.772;-122.432;2024-01-25T08:01:36;101541.64;;;7.50;75.99
84752;BME280;74978;37.772;-122.432;2024-01-25T08:04:01;101542.84;;;6.98;74.64
84752;BME280;74978;37.772;-122.432;2024-01-25T08:06:26;101543.07;;;7.57;75.46
84752;BME280;74978;37.772;-122.432;2024-01-25T08:08:51;101540.53;;;7.64;76.04
84752;BME280;74978;37.772;-122.432;2024-01-25T08:11:17;101541.30;;;7.68;73.90
84752;BME280;74978;37.772;-122.432;2024-01-25T08:13:43;101540.99;;;7.36;76.64
84752;BME280;74978;37.772;-122.432;2024-01-25T08:16:10;101546.98;;;7.57;74.81
84752;BME280;74978;37.772;-122.432;2024-01-25T08:18:33;101549.41;;;7.31;75.84
84752;BME280;74978;37.772;-122.432;2024-01-25T08:20:59;101547.69;;;6.67;75.83
84752;BME280;74978;37.772;-122.432;2024-01-25T08:23:25;101544.18;;;7.63;74.52
84752;BME280;74978;37.772;-122.432;2024-01-25T08:25:52;101539.19;;;7.92;72.70
84752;BME280;74978;37.772;-122.432;2024-01-25T08:28:16;101535.56;;;7.13;75.79
84752;BME280;74978;37.772;-122.432;2024-01-25T08:30:42;101536.08;;;7.73;75.57
84752;BME280;74978;37.772;-122.432;2024-01-25T08:33:07;101538.05;;;7.34;74.09
84752;BME280;74978;37.772;-122.432;2024-01-25T08:35:33;101540.39;;;7.16;75.09
84752;BME280;74978;37.772;-122.432;2024-01-25T08:37:58;101539.55;;;6.81;74.83
84752;BME280;74978;37.772;-122.432;2024-01-25T08:40:24;101546.54;;;7.68;73.90
84752;BME280;74978;37.772;-122.432;2024-01-25T08:42:49;101543.09;;;7.23;74.63
84752;BME280;74978;37.772;-122.432;2024-01-25T08:45:15;101550.28;;;7.80;73.22
84752;BME280;74978;37.772;-122.432;2024-01-25T08:47:40;101549.93;;;7.36;73.07
84752;BME280;74978;37.772;-122.432;2024-01-25T08:50:07;101544.03;;;7.11;74.72
84752;BME280;74978;37.772;-122.432;2024-01-25T08:52:31;101547.79;;;7.19;73.60
84752;BME280;74978;37.772;-122.432;2024-01-25T08:54:56;101548.46;;;7.61;72.00
84752;BME280;74978;37.772;-122.432;2024-01-25T08:57:22;101555.87;;;7.31;73.77
84752;BME280;74978;37.772;-122.432;2024-01-25T08:59:48;101557.37;;;7.52;73.24
84752;BME280;74978;37.772;-122.432;2024-01-25T09:02:13;101564.58;;;7.45;72.04
84752;BME280;74978;37.772;-122.432;2024-01-25T09:04:38;101565.14;;;8.11;71.30
84752;BME280;74978;37.772;-122.432;2024-01-25T09:07:04;101568.44;;;7.14;72.82
84752;BME280;74978;37.772;-122.432;2024-01-25T09:09:29;101570.85;;;7.77;71.96
84752;BME280;74978;37.772;-122.432;2024-01-25T09:11:55;101570.07;;;7.66;71.87
84752;BME280;74978;37.772;-122.432;2024-01-25T09:14:21;101566.99;;;7.89;70.32
84752;BME280;74978;37.772;-122.432;2024-01-25T09:16:47;101566.93;;;7.53;71.83
84752;BME280;74978;37.772;-122.432;2024-01-25T09:19:12;101568.20;;;8.36;69.63
84752;BME280;74978;37.772;-122.432;2024-01-25T09:21:39;101575.52;;;7.82;70.51
84752;BME280;74978;37.772;-122.432;2024-01-25T09:24:04;101578.83;;;7.42;68.98
84752;BME280;74978;37.772;-122.432;2024-01-25T09:26:29;101583.53;;;8.84;67.08
84752;BME280;74978;37.772;-122.432;2024-01-25T09:28:54;101578.07;;;10.37;62.90
84752;BME280;74978;37.772;-122.432;2024-01-25T09:31:20;101578.40;;;7.91;68.54
84752;BME280;74978;37.772;-122.432;2024-01-25T09:33:45;101576.18;;;10.01;65.25
84752;BME280;74978;37.772;-122.432;2024-01-25T09:36:11;101575.82;;;8.24;67.26
84752;BME280;74978;37.772;-122.432;2024-01-25T09:38:36;101581.26;;;8.10;68.11
84752;BME280;74978;37.772;-122.432;2024-01-25T09:41:02;101583.94;;;8.62;65.09
84752;BME280;74978;37.772;-122.432;2024-01-25T09:43:27;101583.60;;;7.75;69.88
84752;BME280;74978;37.772;-122.432;2024-01-25T09:45:54;101585.61;;;8.56;67.71
84752;BME280;74978;37.772;-122.432;2024-01-25T09:48:18;101592.40;;;9.27;65.47
84752;BME280;74978;37.772;-122.432;2024-01-25T09:50:44;101594.11;;;8.59;67.22
84752;BME280;74978;37.772;-122.432;2024-01-25T09:53:11;101599.02;;;8.67;66.56
84752;BME280;74978;37.772;-122.432;2024-01-25T09:55:36;101602.29;;;9.43;64.01
84752;BME280;74978;37.772;-122.432;2024-01-25T09:58:01;101607.54;;;7.97;65.97
84752;BME280;74978;37.772;-122.432;2024-01-25T10:00:26;101610.46;;;8.80;65.04
84752;BME280;74978;37.772;-122.432;2024-01-25T10:02:54;101611.56;;;9.23;64.97
84752;BME280;74978;37.772;-122.432;2024-01-25T10:05:18;101609.26;;;8.50;67.98
84752;BME280;74978;37.772;-122.432;2024-01-25T10:07:44;101612.81;;;8.19;68.10
84752;BME280;74978;37.772;-122.432;2024-01-25T10:10:09;101613.99;;;8.34;65.65
84752;BME280;74978;37.772;-122.432;2024-01-25T10:12:34;101613.79;;;8.62;66.80
84752;BME280;74978;37.772;-122.432;2024-01-25T10:14:59;101623.43;;;8.57;64.82
84752;BME280;74978;37.772;-122.432;2024-01-25T10:17:25;101623.40;;;8.50;66.36
84752;BME280;74978;37.772;-122.432;2024-01-25T10:19:50;101622.58;;;7.98;68.04
84752;BME280;74978;37.772;-122.432;2024-01-25T10:22:15;101620.97;;;8.78;66.63
84752;BME280;74978;37.772;-122.432;2024-01-25T10:24:41;101624.97;;;8.84;65.36
84752;BME280;74978;37.772;-122.432;2024-01-25T10:27:07;101629.16;;;8.86;65.31
84752;BME280;74978;37.772;-122.432;2024-01-25T10:29:32;101633.27;;;8.79;65.34
84752;BME280;74978;37.772;-122.432;2024-01-25T10:31:57;101633.03;;;8.61;65.25
84752;BME280;74978;37.772;-122.432;2024-01-25T10:34:23;101632.66;;;9.37;63.06
84752;BME280;74978;37.772;-122.432;2024-01-25T10:36:49;101631.91;;;9.15;64.54
84752;BME280;74978;37.772;-122.432;2024-01-25T10:39:14;101632.41;;;9.69;61.77
84752;BME280;74978;37.772;-122.432;2024-01-25T10:41:39;101637.88;;;9.88;61.30
84752;BME280;74978;37.772;-122.432;2024-01-25T10:44:05;101633.46;;;11.13;57.02
84752;BME280;74978;37.772;-122.432;2024-01-25T10:46:31;101639.32;;;12.23;55.76
84752;BME280;74978;37.772;-122.432;2024-01-25T10:48:58;101643.09;;;11.82;55.29
84752;BME280;74978;37.772;-122.432;2024-01-25T10:51:22;101644.87;;;11.79;55.92
84752;BME280;74978;37.772;-122.432;2024-01-25T10:53:47;101649.26;;;10.84;57.21
84752;BME280;74978;37.772;-122.432;2024-01-25T10:56:12;101664.43;;;9.91;59.82
84752;BME280;74978;37.772;-122.432;2024-01-25T10:58:41;101670.94;;;10.47;59.24
84752;BME280;74978;37.772;-122.432;2024-01-25T11:01:07;101674.30;;;9.50;60.04
84752;BME280;74978;37.772;-122.432;2024-01-25T11:03:29;101669.72;;;9.99;60.15
84752;BME280;74978;37.772;-122.432;2024-01-25T11:05:55;101669.79;;;8.32;64.97
84752;BME280;74978;37.772;-122.432;2024-01-25T11:08:20;101674.56;;;8.34;65.27
84752;BME280;74978;37.772;-122.432;2024-01-25T11:10:50;101671.70;;;8.48;64.72
84752;BME280;74978;37.772;-122.432;2024-01-25T11:13:14;101671.09;;;8.90;62.68
84752;BME280;74978;37.772;-122.432;2024-01-25T11:15:37;101667.92;;;8.95;63.86
84752;BME280;74978;37.772;-122.432;2024-01-25T11:18:03;101671.18;;;8.59;62.81
84752;BME280;74978;37.772;-122.432;2024-01-25T11:20:29;101671.20;;;8.51;63.55
84752;BME280;74978;37.772;-122.432;2024-01-25T11:22:58;101667.97;;;8.93;63.39
84752;BME280;74978;37.772;-122.432;2024-01-25T11:25:20;101668.30;;;7.93;64.46
84752;BME280;74978;37.772;-122.432;2024-01-25T11:27:44;101662.96;;;8.58;63.15
84752;BME280;74978;37.772;-122.432;2024-01-25T11:30:10;101670.06;;;7.75;65.82
84752;BME280;74978;37.772;-122.432;2024-01-25T11:32:35;101666.71;;;9.65;62.44
84752;BME280;74978;37.772;-122.432;2024-01-25T11:35:00;101667.53;;;6.76;66.32
84752;BME280;74978;37.772;-122.432;2024-01-25T11:37:26;101665.43;;;7.92;67.40
84752;BME280;74978;37.772;-122.432;2024-01-25T11:39:52;101665.36;;;7.57;68.77
84752;BME280;74978;37.772;-122.432;2024-01-25T11:42:17;101670.55;;;7.92;67.54
84752;BME280;74978;37.772;-122.432;2024-01-25T11:44:43;101669.72;;;9.19;62.58
84752;BME280;74978;37.772;-122.432;2024-01-25T11:47:08;101670.44;;;9.19;62.16
84752;BME280;74978;37.772;-122.432;2024-01-25T11:49:35;101664.57;;;9.45;61.84
84752;BME280;74978;37.772;-122.432;2024-01-25T11:51:59;101666.86;;;8.02;63.76
84752;BME280;74978;37.772;-122.432;2024-01-25T11:54:24;101671.08;;;9.13;63.57
84752;BME280;74978;37.772;-122.432;2024-01-25T11:56:50;101676.70;;;8.56;63.83
84752;BME280;74978;37.772;-122.432;2024-01-25T11:59:16;101678.17;;;9.46;61.33
84752;BME280;74978;37.772;-122.432;2024-01-25T12:01:41;101679.81;;;8.81;62.83
84752;BME280;74978;37.772;-122.432;2024-01-25T12:04:06;101679.05;;;8.00;64.19
84752;BME280;74978;37.772;-122.432;2024-01-25T12:06:31;101682.01;;;7.66;66.42
84752;BME280;74978;37.772;-122.432;2024-01-25T12:09:07;101678.99;;;7.78;65.14
84752;BME280;74978;37.772;-122.432;2024-01-25T12:11:22;101678.69;;;7.31;68.55
84752;BME280;74978;37.772;-122.432;2024-01-25T12:13:48;101678.48;;;8.14;66.68
84752;BME280;74978;37.772;-122.432;2024-01-25T12:16:14;101677.52;;;7.20;68.99
84752;BME280;74978;37.772;-122.432;2024-01-25T12:18:41;101680.91;;;7.13;68.91